Estación Meteorológica Peña el Pijo (Robertgarden) [ 01/16/21 22:21:52 CET ]

Fecha Hora Presion(HPa) Temp (°C) Humedad % Rocio (°C) Viento ( m/s) Direccion Lluvia 1Hora(mm) Lluvia 24H(mm) LLuvia Total(mm)
2021-Jan-11 01:09:12 1001.800 -1.3 95 -2.0 - N     89.61
2021-Jan-11 02:09:30 1002.000 -1.7 94 -2.5 - N     89.61
2021-Jan-11 03:11:13 1002.100 -1.6 94 -2.4 - N     89.61
2021-Jan-11 04:11:19 1002.200 -1.9 94 -2.7 - N     89.61
2021-Jan-11 05:09:40 1002.500 -1.9 94 -2.7 - N     89.61
2021-Jan-11 06:09:38 1002.300 -2.4 94 -3.2 - N     89.61
2021-Jan-11 07:09:42 1002.800 -2.8 93 -3.8 - N     89.61
2021-Jan-11 08:09:12 1003.300 -2.7 93 -3.7 - N     89.61
2021-Jan-11 09:09:36 1004.000 -2.5 93 -3.5 - N     89.61
2021-Jan-11 10:09:35 1004.900 -1.4 92 -2.5 - N     89.61
2021-Jan-11 11:09:44 1005.800 0.7 91 -0.6 - N     89.61
2021-Jan-11 12:10:01 1005.800 2.1 88 0.3 - N     89.61
2021-Jan-11 13:09:44 1005.300 3.3 89 1.6 - N     89.61
2021-Jan-11 14:09:47 1004.700 4.5 87 2.5 - N     89.61
2021-Jan-11 15:09:27 1004.700 4.4 87 2.4 - N     89.61
2021-Jan-11 16:09:32 1005.400 3.1 89 1.4 - N     89.61
2021-Jan-11 17:09:33 1005.900 2.3 93 1.2 - N     89.61
2021-Jan-11 18:09:28 1006.600 1.0 94 0.1 - N     89.61
2021-Jan-11 19:10:02 1007.100 -0.4 94 -1.2 - N     89.61
2021-Jan-11 20:09:24 1008.000 -1.2 95 -1.9 - N     89.61
2021-Jan-11 21:09:51 1008.800 -2.2 95 -2.9 - N     89.61
2021-Jan-11 22:09:28 1009.300 -3.0 95 -3.7 - N     89.61
2021-Jan-11 23:09:39 1009.900 -3.2 94 -4.0 - N     89.61

Temperatura Máxima:    Temperatura Mínima:-3°
Presión Máxima:1009.900 Hpa    Presión Mínima:1001.800 Hpa


Volver